sensor_id;sensor_type;location;lat;lon;timestamp;pressure;altitude;pressure_sealevel;temperature;humidity
68329;BME280;55182;56.864;60.554;2023-05-25T00:01:13;74726.41;;;-143.60;55.68
68329;BME280;55182;56.864;60.554;2023-05-25T00:03:38;74718.34;;;-143.60;55.42
68329;BME280;55182;56.864;60.554;2023-05-25T00:06:04;74712.34;;;-143.60;54.95
68329;BME280;55182;56.864;60.554;2023-05-25T00:08:30;74700.28;;;-143.60;53.54
68329;BME280;55182;56.864;60.554;2023-05-25T00:10:55;74684.22;;;-143.60;52.82
68329;BME280;55182;56.864;60.554;2023-05-25T00:13:21;74688.22;;;-143.60;53.30
68329;BME280;55182;56.864;60.554;2023-05-25T00:15:46;74688.22;;;-143.60;54.20
68329;BME280;55182;56.864;60.554;2023-05-25T00:18:12;74702.28;;;-143.60;54.10
68329;BME280;55182;56.864;60.554;2023-05-25T00:20:37;74706.31;;;-143.60;54.56
68329;BME280;55182;56.864;60.554;2023-05-25T00:23:03;74704.28;;;-143.60;54.13
68329;BME280;55182;56.864;60.554;2023-05-25T00:25:28;74694.25;;;-143.60;54.32
68329;BME280;55182;56.864;60.554;2023-05-25T00:27:54;74692.25;;;-143.60;54.42
68329;BME280;55182;56.864;60.554;2023-05-25T00:30:19;74688.22;;;-143.60;53.97
68329;BME280;55182;56.864;60.554;2023-05-25T00:32:45;74682.19;;;-143.60;54.19
68329;BME280;55182;56.864;60.554;2023-05-25T00:35:11;74688.22;;;-143.60;53.33
68329;BME280;55182;56.864;60.554;2023-05-25T00:37:38;74684.22;;;-143.60;53.22
68329;BME280;55182;56.864;60.554;2023-05-25T00:40:03;74680.19;;;-143.60;53.25
68329;BME280;55182;56.864;60.554;2023-05-25T00:42:29;74680.19;;;-143.60;52.99
68329;BME280;55182;56.864;60.554;2023-05-25T00:44:55;74676.19;;;-143.60;52.98
68329;BME280;55182;56.864;60.554;2023-05-25T00:47:20;74680.19;;;-143.60;52.19
68329;BME280;55182;56.864;60.554;2023-05-25T00:49:46;74676.19;;;-143.60;52.26
68329;BME280;55182;56.864;60.554;2023-05-25T00:52:12;74676.19;;;-143.60;51.81
68329;BME280;55182;56.864;60.554;2023-05-25T00:54:37;74668.13;;;-143.60;51.62
68329;BME280;55182;56.864;60.554;2023-05-25T00:57:05;74668.13;;;-143.60;51.40
68329;BME280;55182;56.864;60.554;2023-05-25T00:59:41;74664.13;;;-143.60;51.20
68329;BME280;55182;56.864;60.554;2023-05-25T01:02:09;74660.09;;;-143.60;51.11
68329;BME280;55182;56.864;60.554;2023-05-25T01:04:38;74654.06;;;-143.60;51.62
68329;BME280;55182;56.864;60.554;2023-05-25T01:07:07;74652.06;;;-143.60;51.51
68329;BME280;55182;56.864;60.554;2023-05-25T01:09:34;74646.03;;;-143.60;51.67
68329;BME280;55182;56.864;60.554;2023-05-25T01:12:02;74644.03;;;-143.60;52.32
68329;BME280;55182;56.864;60.554;2023-05-25T01:14:28;74640.03;;;-143.60;51.74
68329;BME280;55182;56.864;60.554;2023-05-25T01:16:55;74640.03;;;-143.60;52.02
68329;BME280;55182;56.864;60.554;2023-05-25T01:19:21;74627.97;;;-143.60;51.98
68329;BME280;55182;56.864;60.554;2023-05-25T01:26:58;74601.84;;;-143.60;51.43
68329;BME280;55182;56.864;60.554;2023-05-25T01:29:26;74587.78;;;-143.60;51.48
68329;BME280;55182;56.864;60.554;2023-05-25T01:31:52;74575.75;;;-143.60;51.05
68329;BME280;55182;56.864;60.554;2023-05-25T01:34:18;74563.69;;;-143.60;50.97
68329;BME280;55182;56.864;60.554;2023-05-25T01:36:44;74551.63;;;-143.60;51.17
68329;BME280;55182;56.864;60.554;2023-05-25T01:39:10;74547.63;;;-143.60;51.26
68329;BME280;55182;56.864;60.554;2023-05-25T01:41:36;74539.59;;;-143.60;50.96
68329;BME280;55182;56.864;60.554;2023-05-25T01:44:03;74529.53;;;-143.60;50.88
68329;BME280;55182;56.864;60.554;2023-05-25T01:46:37;74519.50;;;-143.60;50.59
68329;BME280;55182;56.864;60.554;2023-05-25T01:51:35;74499.41;;;-143.60;50.12
68329;BME280;55182;56.864;60.554;2023-05-25T01:54:11;74491.38;;;-143.60;49.14
68329;BME280;55182;56.864;60.554;2023-05-25T01:56:38;74483.34;;;-143.60;48.42
68329;BME280;55182;56.864;60.554;2023-05-25T01:59:04;74477.31;;;-143.60;47.83
68329;BME280;55182;56.864;60.554;2023-05-25T02:01:32;74475.31;;;-143.60;47.57
68329;BME280;55182;56.864;60.554;2023-05-25T02:03:58;74467.28;;;-143.60;47.72
68329;BME280;55182;56.864;60.554;2023-05-25T02:06:24;74459.25;;;-143.60;48.27
68329;BME280;55182;56.864;60.554;2023-05-25T02:08:50;74451.19;;;-143.60;48.20
68329;BME280;55182;56.864;60.554;2023-05-25T02:11:16;74449.19;;;-143.60;47.96
68329;BME280;55182;56.864;60.554;2023-05-25T02:13:44;74443.16;;;-143.60;47.82
68329;BME280;55182;56.864;60.554;2023-05-25T02:16:09;74435.13;;;-143.60;48.30
68329;BME280;55182;56.864;60.554;2023-05-25T02:18:35;74435.13;;;-143.60;47.86
68329;BME280;55182;56.864;60.554;2023-05-25T02:21:00;74427.09;;;-143.60;47.79
68329;BME280;55182;56.864;60.554;2023-05-25T02:23:26;74427.09;;;-143.60;48.81
68329;BME280;55182;56.864;60.554;2023-05-25T02:25:51;74433.13;;;-143.60;47.97
68329;BME280;55182;56.864;60.554;2023-05-25T02:28:17;74433.13;;;-143.60;48.27
68329;BME280;55182;56.864;60.554;2023-05-25T02:30:42;74439.16;;;-143.60;48.30
68329;BME280;55182;56.864;60.554;2023-05-25T02:33:08;74439.16;;;-143.60;48.33
68329;BME280;55182;56.864;60.554;2023-05-25T02:35:34;74445.19;;;-143.60;48.30
68329;BME280;55182;56.864;60.554;2023-05-25T02:37:59;74435.13;;;-143.60;48.31
68329;BME280;55182;56.864;60.554;2023-05-25T02:40:25;74423.09;;;-143.60;48.30
68329;BME280;55182;56.864;60.554;2023-05-25T02:42:52;74407.00;;;-143.60;48.22
68329;BME280;55182;56.864;60.554;2023-05-25T02:45:17;74398.97;;;-143.60;47.68
68329;BME280;55182;56.864;60.554;2023-05-25T02:47:43;74382.91;;;-143.60;47.77
68329;BME280;55182;56.864;60.554;2023-05-25T02:50:11;74372.88;;;-143.60;48.27
68329;BME280;55182;56.864;60.554;2023-05-25T02:52:42;74360.81;;;-143.60;46.25
68329;BME280;55182;56.864;60.554;2023-05-25T02:55:07;74354.78;;;-143.60;47.18
68329;BME280;55182;56.864;60.554;2023-05-25T02:57:36;74350.78;;;-143.60;45.83
68329;BME280;55182;56.864;60.554;2023-05-25T03:00:03;74346.75;;;-143.60;45.56
68329;BME280;55182;56.864;60.554;2023-05-25T03:02:29;74330.69;;;-143.60;45.09
68329;BME280;55182;56.864;60.554;2023-05-25T03:04:55;74310.59;;;-143.60;45.54
68329;BME280;55182;56.864;60.554;2023-05-25T03:07:21;74302.56;;;-143.60;45.81
68329;BME280;55182;56.864;60.554;2023-05-25T03:09:47;74290.50;;;-143.60;45.02
68329;BME280;55182;56.864;60.554;2023-05-25T03:12:13;74278.47;;;-143.60;45.24
68329;BME280;55182;56.864;60.554;2023-05-25T03:14:38;74256.38;;;-143.60;44.30
68329;BME280;55182;56.864;60.554;2023-05-25T03:17:04;74244.31;;;-143.60;43.97
68329;BME280;55182;56.864;60.554;2023-05-25T03:19:29;74238.28;;;-143.60;44.96
68329;BME280;55182;56.864;60.554;2023-05-25T03:21:55;74240.31;;;-143.60;43.84
68329;BME280;55182;56.864;60.554;2023-05-25T03:24:20;74246.31;;;-143.60;43.28
68329;BME280;55182;56.864;60.554;2023-05-25T03:26:46;74234.28;;;-143.60;43.19
68329;BME280;55182;56.864;60.554;2023-05-25T03:29:13;74228.25;;;-143.60;43.53
68329;BME280;55182;56.864;60.554;2023-05-25T03:31:38;74220.22;;;-143.60;44.46
68329;BME280;55182;56.864;60.554;2023-05-25T03:34:04;74218.22;;;-143.60;44.19
68329;BME280;55182;56.864;60.554;2023-05-25T03:36:32;74214.19;;;-143.60;43.42
68329;BME280;55182;56.864;60.554;2023-05-25T03:38:58;74204.16;;;-143.60;43.42
68329;BME280;55182;56.864;60.554;2023-05-25T03:41:23;74184.06;;;-143.60;43.51
68329;BME280;55182;56.864;60.554;2023-05-25T03:43:49;74174.03;;;-143.60;43.67
68329;BME280;55182;56.864;60.554;2023-05-25T03:46:15;74155.94;;;-143.60;43.41
68329;BME280;55182;56.864;60.554;2023-05-25T03:48:41;74147.91;;;-143.60;43.16
68329;BME280;55182;56.864;60.554;2023-05-25T03:51:07;74139.88;;;-143.60;44.59
68329;BME280;55182;56.864;60.554;2023-05-25T03:53:32;74137.88;;;-143.60;44.28
68329;BME280;55182;56.864;60.554;2023-05-25T03:55:58;74133.84;;;-143.60;43.50
68329;BME280;55182;56.864;60.554;2023-05-25T03:58:23;74119.78;;;-143.60;43.43
68329;BME280;55182;56.864;60.554;2023-05-25T04:00:49;74099.72;;;-143.60;43.62
68329;BME280;55182;56.864;60.554;2023-05-25T04:03:14;74081.63;;;-143.60;43.24
68329;BME280;55182;56.864;60.554;2023-05-25T04:05:41;74063.56;;;-143.60;43.00
68329;BME280;55182;56.864;60.554;2023-05-25T04:08:07;74045.47;;;-143.60;42.53
68329;BME280;55182;56.864;60.554;2023-05-25T04:10:33;74031.41;;;-143.60;42.44
68329;BME280;55182;56.864;60.554;2023-05-25T04:12:59;74017.38;;;-143.60;41.87
68329;BME280;55182;56.864;60.554;2023-05-25T04:15:24;73999.28;;;-143.60;41.17
68329;BME280;55182;56.864;60.554;2023-05-25T04:18:00;73985.22;;;-143.60;40.85
68329;BME280;55182;56.864;60.554;2023-05-25T04:20:26;73969.16;;;-143.60;40.95
68329;BME280;55182;56.864;60.554;2023-05-25T04:22:51;73955.09;;;-143.60;40.68
68329;BME280;55182;56.864;60.554;2023-05-25T04:25:16;73945.06;;;-143.60;41.99
68329;BME280;55182;56.864;60.554;2023-05-25T04:27:42;73933.00;;;-143.60;40.98
68329;BME280;55182;56.864;60.554;2023-05-25T04:30:09;73912.94;;;-143.60;40.54
68329;BME280;55182;56.864;60.554;2023-05-25T04:33:01;73886.81;;;-143.60;40.29
68329;BME280;55182;56.864;60.554;2023-05-25T04:35:36;73860.72;;;-143.60;40.12
68329;BME280;55182;56.864;60.554;2023-05-25T04:38:03;73852.69;;;-143.60;40.20
68329;BME280;55182;56.864;60.554;2023-05-25T04:40:29;73832.59;;;-143.60;40.48
68329;BME280;55182;56.864;60.554;2023-05-25T04:42:54;73808.50;;;-143.60;39.72
68329;BME280;55182;56.864;60.554;2023-05-25T04:45:20;73792.44;;;-143.60;40.36
68329;BME280;55182;56.864;60.554;2023-05-25T04:47:46;73786.41;;;-143.60;40.21
68329;BME280;55182;56.864;60.554;2023-05-25T04:50:11;73774.34;;;-143.60;39.95
68329;BME280;55182;56.864;60.554;2023-05-25T04:52:36;73762.31;;;-143.60;39.99
68329;BME280;55182;56.864;60.554;2023-05-25T04:55:02;73744.22;;;-143.60;39.68
68329;BME280;55182;56.864;60.554;2023-05-25T04:57:30;73732.19;;;-143.60;39.33
68329;BME280;55182;56.864;60.554;2023-05-25T04:59:56;73712.09;;;-143.60;38.66
68329;BME280;55182;56.864;60.554;2023-05-25T05:02:22;73700.03;;;-143.60;39.26
68329;BME280;55182;56.864;60.554;2023-05-25T05:04:48;73675.94;;;-143.60;37.94
68329;BME280;55182;56.864;60.554;2023-05-25T05:07:13;73655.88;;;-143.60;36.26
68329;BME280;55182;56.864;60.554;2023-05-25T05:09:39;73627.75;;;-143.60;36.24
68329;BME280;55182;56.864;60.554;2023-05-25T05:12:06;73605.66;;;-143.60;35.81
68329;BME280;55182;56.864;60.554;2023-05-25T05:14:37;73583.56;;;-143.60;35.96
68329;BME280;55182;56.864;60.554;2023-05-25T05:17:02;73579.56;;;-143.60;36.08
68329;BME280;55182;56.864;60.554;2023-05-25T05:19:28;73573.53;;;-143.60;36.15
68329;BME280;55182;56.864;60.554;2023-05-25T05:21:54;73559.47;;;-143.60;36.97
68329;BME280;55182;56.864;60.554;2023-05-25T05:24:20;73545.41;;;-143.60;36.16
68329;BME280;55182;56.864;60.554;2023-05-25T05:26:46;73541.41;;;-143.60;36.18
68329;BME280;55182;56.864;60.554;2023-05-25T05:29:11;73527.34;;;-143.60;35.91
68329;BME280;55182;56.864;60.554;2023-05-25T05:31:37;73501.22;;;-143.60;33.51
68329;BME280;55182;56.864;60.554;2023-05-25T05:34:03;73479.13;;;-143.60;27.83
68329;BME280;55182;56.864;60.554;2023-05-25T05:36:29;73449.03;;;-143.60;28.10
68329;BME280;55182;56.864;60.554;2023-05-25T05:38:55;73426.94;;;-143.60;28.68
68329;BME280;55182;56.864;60.554;2023-05-25T05:41:21;73410.88;;;-143.60;28.10
68329;BME280;55182;56.864;60.554;2023-05-25T05:43:48;73398.81;;;-143.60;27.61
68329;BME280;55182;56.864;60.554;2023-05-25T05:46:13;73390.78;;;-143.60;26.62
68329;BME280;55182;56.864;60.554;2023-05-25T05:48:39;73380.75;;;-143.60;26.42
68329;BME280;55182;56.864;60.554;2023-05-25T05:51:05;73374.72;;;-143.60;26.11
68329;BME280;55182;56.864;60.554;2023-05-25T05:53:31;73356.66;;;-143.60;26.26
68329;BME280;55182;56.864;60.554;2023-05-25T05:55:57;73348.63;;;-143.60;26.42
68329;BME280;55182;56.864;60.554;2023-05-25T05:58:22;73334.56;;;-143.60;26.09
68329;BME280;55182;56.864;60.554;2023-05-25T06:00:48;73318.50;;;-143.60;26.37
68329;BME280;55182;56.864;60.554;2023-05-25T06:03:13;73310.47;;;-143.60;26.13
68329;BME280;55182;56.864;60.554;2023-05-25T06:05:39;73280.34;;;-143.60;25.90
68329;BME280;55182;56.864;60.554;2023-05-25T06:08:06;73268.28;;;-143.60;25.59
68329;BME280;55182;56.864;60.554;2023-05-25T06:10:33;73250.22;;;-143.60;25.41
68329;BME280;55182;56.864;60.554;2023-05-25T06:12:59;73236.16;;;-143.60;25.83
68329;BME280;55182;56.864;60.554;2023-05-25T06:15:25;73218.09;;;-143.60;25.25
68329;BME280;55182;56.864;60.554;2023-05-25T06:17:54;73198.00;;;-143.60;25.68
68329;BME280;55182;56.864;60.554;2023-05-25T06:20:19;73181.94;;;-143.60;25.91
68329;BME280;55182;56.864;60.554;2023-05-25T06:22:45;73149.81;;;-143.60;26.19
68329;BME280;55182;56.864;60.554;2023-05-25T06:25:11;73145.81;;;-143.60;25.68
68329;BME280;55182;56.864;60.554;2023-05-25T06:27:36;73153.84;;;-143.60;25.71
68329;BME280;55182;56.864;60.554;2023-05-25T06:30:02;73157.84;;;-143.60;24.85
68329;BME280;55182;56.864;60.554;2023-05-25T06:32:28;73167.88;;;-143.60;25.05
68329;BME280;55182;56.864;60.554;2023-05-25T06:34:54;73173.91;;;-143.60;25.11
68329;BME280;55182;56.864;60.554;2023-05-25T06:37:20;73153.84;;;-143.60;24.92
68329;BME280;55182;56.864;60.554;2023-05-25T06:39:46;73129.75;;;-143.60;25.25
68329;BME280;55182;56.864;60.554;2023-05-25T06:42:11;73107.66;;;-143.60;24.78
68329;BME280;55182;56.864;60.554;2023-05-25T06:44:49;73077.53;;;-143.60;25.19
68329;BME280;55182;56.864;60.554;2023-05-25T06:47:14;73051.44;;;-143.60;24.78
68329;BME280;55182;56.864;60.554;2023-05-25T06:49:40;73041.38;;;-143.60;24.67
68329;BME280;55182;56.864;60.554;2023-05-25T06:52:06;73037.38;;;-143.60;24.47
68329;BME280;55182;56.864;60.554;2023-05-25T06:54:31;73057.47;;;-143.60;24.21
68329;BME280;55182;56.864;60.554;2023-05-25T06:56:56;73085.56;;;-143.60;25.01
68329;BME280;55182;56.864;60.554;2023-05-25T06:59:22;73097.63;;;-143.60;24.27
68329;BME280;55182;56.864;60.554;2023-05-25T07:01:47;73115.69;;;-143.60;24.34
68329;BME280;55182;56.864;60.554;2023-05-25T07:04:13;73121.72;;;-143.60;24.23
68329;BME280;55182;56.864;60.554;2023-05-25T07:06:41;73119.69;;;-143.60;24.05
68329;BME280;55182;56.864;60.554;2023-05-25T07:09:07;73117.69;;;-143.60;23.67
68329;BME280;55182;56.864;60.554;2023-05-25T07:11:32;73107.66;;;-143.60;22.80
68329;BME280;55182;56.864;60.554;2023-05-25T07:13:58;73091.59;;;-143.60;23.18
68329;BME280;55182;56.864;60.554;2023-05-25T07:16:23;73071.50;;;-143.60;23.77
68329;BME280;55182;56.864;60.554;2023-05-25T07:18:49;73037.38;;;-143.60;23.57
68329;BME280;55182;56.864;60.554;2023-05-25T07:21:14;73011.28;;;-143.60;23.41
68329;BME280;55182;56.864;60.554;2023-05-25T07:23:40;72993.19;;;-143.60;22.93
68329;BME280;55182;56.864;60.554;2023-05-25T07:26:05;72999.22;;;-143.60;23.22
68329;BME280;55182;56.864;60.554;2023-05-25T07:28:31;72993.19;;;-143.60;22.73
68329;BME280;55182;56.864;60.554;2023-05-25T07:30:56;73011.28;;;-143.60;22.35
68329;BME280;55182;56.864;60.554;2023-05-25T07:33:22;73021.31;;;-143.60;22.63
68329;BME280;55182;56.864;60.554;2023-05-25T07:35:48;73013.28;;;-143.60;22.71
68329;BME280;55182;56.864;60.554;2023-05-25T07:38:13;72993.19;;;-143.60;22.91
68329;BME280;55182;56.864;60.554;2023-05-25T07:40:41;72973.13;;;-143.60;22.54
68329;BME280;55182;56.864;60.554;2023-05-25T07:43:07;72963.09;;;-143.60;23.10
68329;BME280;55182;56.864;60.554;2023-05-25T07:45:33;72953.03;;;-143.60;22.33
68329;BME280;55182;56.864;60.554;2023-05-25T07:47:58;72941.00;;;-143.60;22.43
68329;BME280;55182;56.864;60.554;2023-05-25T07:50:26;72934.97;;;-143.60;22.17
68329;BME280;55182;56.864;60.554;2023-05-25T07:52:52;72922.94;;;-143.60;22.05
68329;BME280;55182;56.864;60.554;2023-05-25T07:55:18;72908.88;;;-143.60;22.35
68329;BME280;55182;56.864;60.554;2023-05-25T07:57:43;72890.81;;;-143.60;22.82
68329;BME280;55182;56.864;60.554;2023-05-25T08:00:12;72862.69;;;-143.60;22.84
68329;BME280;55182;56.864;60.554;2023-05-25T08:02:40;72848.63;;;-143.60;21.93
68329;BME280;55182;56.864;60.554;2023-05-25T08:05:09;72840.59;;;-143.60;21.40
68329;BME280;55182;56.864;60.554;2023-05-25T08:07:34;72836.59;;;-143.60;21.66
68329;BME280;55182;56.864;60.554;2023-05-25T08:10:00;72820.53;;;-143.60;22.44
68329;BME280;55182;56.864;60.554;2023-05-25T08:12:28;72828.56;;;-143.60;21.86
68329;BME280;55182;56.864;60.554;2023-05-25T08:15:02;72842.63;;;-143.60;21.99
68329;BME280;55182;56.864;60.554;2023-05-25T08:17:28;72856.66;;;-143.60;22.27
68329;BME280;55182;56.864;60.554;2023-05-25T08:19:53;72874.75;;;-143.60;22.19
68329;BME280;55182;56.864;60.554;2023-05-25T08:22:22;72894.81;;;-143.60;22.13
68329;BME280;55182;56.864;60.554;2023-05-25T08:24:47;72916.91;;;-143.60;22.38
68329;BME280;55182;56.864;60.554;2023-05-25T08:27:13;72924.94;;;-143.60;22.74
68329;BME280;55182;56.864;60.554;2023-05-25T08:29:40;72934.97;;;-143.60;22.25
68329;BME280;55182;56.864;60.554;2023-05-25T08:32:06;72912.88;;;-143.60;22.56
68329;BME280;55182;56.864;60.554;2023-05-25T08:34:31;72880.75;;;-143.60;22.34
68329;BME280;55182;56.864;60.554;2023-05-25T08:36:57;72844.63;;;-143.60;22.30
68329;BME280;55182;56.864;60.554;2023-05-25T08:39:25;72822.53;;;-143.60;22.88
68329;BME280;55182;56.864;60.554;2023-05-25T08:41:50;72824.53;;;-143.60;21.62
68329;BME280;55182;56.864;60.554;2023-05-25T08:44:16;72840.59;;;-143.60;22.54
68329;BME280;55182;56.864;60.554;2023-05-25T08:46:41;72864.69;;;-143.60;21.85
68329;BME280;55182;56.864;60.554;2023-05-25T08:49:08;72872.72;;;-143.60;23.00
68329;BME280;55182;56.864;60.554;2023-05-25T08:51:36;72860.69;;;-143.60;22.08
68329;BME280;55182;56.864;60.554;2023-05-25T08:54:06;72852.66;;;-143.60;22.25
68329;BME280;55182;56.864;60.554;2023-05-25T08:56:33;72838.59;;;-143.60;21.96
68329;BME280;55182;56.864;60.554;2023-05-25T08:59:12;72840.59;;;-143.60;22.16
68329;BME280;55182;56.864;60.554;2023-05-25T09:01:44;72848.63;;;-143.60;22.94
68329;BME280;55182;56.864;60.554;2023-05-25T09:04:15;72856.66;;;-143.60;22.80
68329;BME280;55182;56.864;60.554;2023-05-25T09:06:41;72836.59;;;-143.60;22.14
68329;BME280;55182;56.864;60.554;2023-05-25T09:09:06;72816.50;;;-143.60;22.18
68329;BME280;55182;56.864;60.554;2023-05-25T09:11:32;72776.34;;;-143.60;22.57
68329;BME280;55182;56.864;60.554;2023-05-25T09:13:58;72754.28;;;-143.60;21.91
68329;BME280;55182;56.864;60.554;2023-05-25T09:16:24;72732.19;;;-143.60;21.80
68329;BME280;55182;56.864;60.554;2023-05-25T09:18:50;72696.03;;;-143.60;21.86
68329;BME280;55182;56.864;60.554;2023-05-25T09:21:15;72684.00;;;-143.60;21.58
68329;BME280;55182;56.864;60.554;2023-05-25T09:23:47;72692.03;;;-143.60;21.72
68329;BME280;55182;56.864;60.554;2023-05-25T09:26:13;72694.03;;;-143.60;21.48
68329;BME280;55182;56.864;60.554;2023-05-25T09:28:43;72726.16;;;-143.60;21.51
68329;BME280;55182;56.864;60.554;2023-05-25T09:31:09;72746.25;;;-143.60;22.26
68329;BME280;55182;56.864;60.554;2023-05-25T09:36:46;72788.41;;;-143.60;22.44
68329;BME280;55182;56.864;60.554;2023-05-25T09:39:11;72838.59;;;-143.60;22.16
68329;BME280;55182;56.864;60.554;2023-05-25T09:41:39;72850.66;;;-143.60;22.36
68329;BME280;55182;56.864;60.554;2023-05-25T09:44:09;72884.78;;;-143.60;22.74
68329;BME280;55182;56.864;60.554;2023-05-25T09:46:38;72882.75;;;-143.60;22.76
68329;BME280;55182;56.864;60.554;2023-05-25T09:49:06;72876.75;;;-143.60;22.54
68329;BME280;55182;56.864;60.554;2023-05-25T09:51:53;72872.72;;;-143.60;22.82
68329;BME280;55182;56.864;60.554;2023-05-25T09:54:18;72858.66;;;-143.60;23.00
68329;BME280;55182;56.864;60.554;2023-05-25T09:56:46;72836.59;;;-143.60;22.65
68329;BME280;55182;56.864;60.554;2023-05-25T09:59:20;72810.47;;;-143.60;22.38
68329;BME280;55182;56.864;60.554;2023-05-25T10:01:49;72776.34;;;-143.60;22.32
68329;BME280;55182;56.864;60.554;2023-05-25T10:04:15;72750.25;;;-143.60;23.07
68329;BME280;55182;56.864;60.554;2023-05-25T10:06:41;72738.22;;;-143.60;22.33
68329;BME280;55182;56.864;60.554;2023-05-25T10:09:08;72736.19;;;-143.60;22.22
68329;BME280;55182;56.864;60.554;2023-05-25T10:11:56;72750.25;;;-143.60;22.07
68329;BME280;55182;56.864;60.554;2023-05-25T10:15:25;72764.31;;;-143.60;22.18
68329;BME280;55182;56.864;60.554;2023-05-25T10:17:42;72790.41;;;-143.60;22.06
68329;BME280;55182;56.864;60.554;2023-05-25T10:20:15;72816.50;;;-143.60;22.65
68329;BME280;55182;56.864;60.554;2023-05-25T10:22:52;72844.63;;;-143.60;22.53
68329;BME280;55182;56.864;60.554;2023-05-25T10:25:48;72856.66;;;-143.60;22.52
68329;BME280;55182;56.864;60.554;2023-05-25T10:28:28;72860.69;;;-143.60;22.77
68329;BME280;55182;56.864;60.554;2023-05-25T10:30:55;72862.69;;;-143.60;22.93
68329;BME280;55182;56.864;60.554;2023-05-25T10:33:24;72860.69;;;-143.60;22.66
68329;BME280;55182;56.864;60.554;2023-05-25T10:38:44;72864.69;;;-143.60;22.41
68329;BME280;55182;56.864;60.554;2023-05-25T10:41:10;72840.59;;;-143.60;22.43
68329;BME280;55182;56.864;60.554;2023-05-25T10:43:37;72816.50;;;-143.60;22.54
68329;BME280;55182;56.864;60.554;2023-05-25T10:49:14;72748.25;;;-143.60;22.97
68329;BME280;55182;56.864;60.554;2023-05-25T10:51:56;72724.16;;;-143.60;21.96
68329;BME280;55182;56.864;60.554;2023-05-25T10:54:27;72732.19;;;-143.60;22.36
68329;BME280;55182;56.864;60.554;2023-05-25T10:59:48;72708.09;;;-143.60;22.30
68329;BME280;55182;56.864;60.554;2023-05-25T11:02:14;72692.03;;;-143.60;22.41
68329;BME280;55182;56.864;60.554;2023-05-25T11:04:40;72679.97;;;-143.60;22.35
68329;BME280;55182;56.864;60.554;2023-05-25T11:07:15;72651.88;;;-143.60;22.19
68329;BME280;55182;56.864;60.554;2023-05-25T11:09:55;72627.78;;;-143.60;22.13
68329;BME280;55182;56.864;60.554;2023-05-25T11:12:41;72603.69;;;-143.60;22.08
68329;BME280;55182;56.864;60.554;2023-05-25T11:15:07;72599.66;;;-143.60;21.68
68329;BME280;55182;56.864;60.554;2023-05-25T11:17:42;72585.63;;;-143.60;21.89
68329;BME280;55182;56.864;60.554;2023-05-25T11:20:19;72579.59;;;-143.60;21.87
68329;BME280;55182;56.864;60.554;2023-05-25T11:22:45;72563.53;;;-143.60;21.96
68329;BME280;55182;56.864;60.554;2023-05-25T11:28:02;72529.41;;;-143.60;22.02
68329;BME280;55182;56.864;60.554;2023-05-25T11:30:35;72445.09;;;-143.60;21.66
68329;BME280;55182;56.864;60.554;2023-05-25T11:33:01;72302.53;;;-143.60;21.66
68329;BME280;55182;56.864;60.554;2023-05-25T11:35:28;72166.03;;;-143.60;20.43
68329;BME280;55182;56.864;60.554;2023-05-25T11:37:54;72049.59;;;-143.60;19.95
68329;BME280;55182;56.864;60.554;2023-05-25T11:40:23;71957.25;;;-143.60;19.33
68329;BME280;55182;56.864;60.554;2023-05-25T11:42:50;71876.97;;;-143.60;19.03
68329;BME280;55182;56.864;60.554;2023-05-25T11:45:16;71840.84;;;-143.60;18.86
68329;BME280;55182;56.864;60.554;2023-05-25T11:47:42;71864.91;;;-143.60;19.11
68329;BME280;55182;56.864;60.554;2023-05-25T11:50:13;71885.00;;;-143.60;18.89
68329;BME280;55182;56.864;60.554;2023-05-25T11:52:39;71885.00;;;-143.60;19.58
68329;BME280;55182;56.864;60.554;2023-05-25T11:55:12;71856.88;;;-143.60;19.14
68329;BME280;55182;56.864;60.554;2023-05-25T11:57:38;71860.91;;;-143.60;18.77
68329;BME280;55182;56.864;60.554;2023-05-25T12:00:04;71897.03;;;-143.60;19.64
68329;BME280;55182;56.864;60.554;2023-05-25T12:02:38;71885.00;;;-143.60;19.06
68329;BME280;55182;56.864;60.554;2023-05-25T12:05:04;71834.81;;;-143.60;19.03
68329;BME280;55182;56.864;60.554;2023-05-25T12:07:30;71792.66;;;-143.60;18.26
68329;BME280;55182;56.864;60.554;2023-05-25T12:12:35;71766.56;;;-143.60;18.59
68329;BME280;55182;56.864;60.554;2023-05-25T12:15:01;71716.38;;;-143.60;17.99
68329;BME280;55182;56.864;60.554;2023-05-25T12:17:26;71728.44;;;-143.60;18.44
68329;BME280;55182;56.864;60.554;2023-05-25T12:19:52;71800.69;;;-143.60;18.39
68329;BME280;55182;56.864;60.554;2023-05-25T12:22:17;71808.72;;;-143.60;18.36
68329;BME280;55182;56.864;60.554;2023-05-25T12:24:43;71818.75;;;-143.60;18.43
68329;BME280;55182;56.864;60.554;2023-05-25T12:27:18;71828.78;;;-143.60;18.79
68329;BME280;55182;56.864;60.554;2023-05-25T12:29:45;71800.69;;;-143.60;18.57
68329;BME280;55182;56.864;60.554;2023-05-25T12:32:10;71762.56;;;-143.60;18.23
68329;BME280;55182;56.864;60.554;2023-05-25T12:34:36;71724.41;;;-143.60;18.21
68329;BME280;55182;56.864;60.554;2023-05-25T12:37:01;71676.22;;;-143.60;18.39
68329;BME280;55182;56.864;60.554;2023-05-25T12:39:30;71682.25;;;-143.60;18.16
68329;BME280;55182;56.864;60.554;2023-05-25T12:41:57;71700.31;;;-143.60;18.35
68329;BME280;55182;56.864;60.554;2023-05-25T12:44:23;71688.28;;;-143.60;17.98
68329;BME280;55182;56.864;60.554;2023-05-25T12:46:50;71744.47;;;-143.60;18.23
68329;BME280;55182;56.864;60.554;2023-05-25T12:51:47;71880.97;;;-143.60;18.91
68329;BME280;55182;56.864;60.554;2023-05-25T12:54:12;71860.91;;;-143.60;18.71
68329;BME280;55182;56.864;60.554;2023-05-25T12:56:53;71826.78;;;-143.60;18.59
68329;BME280;55182;56.864;60.554;2023-05-25T12:59:19;71854.88;;;-143.60;18.90